Time;durP1;ratioP1;P1;durP2;ratioP2;P2;SDS_P1;SDS_P2;PMS_P1;PMS_P2;Temp;Humidity;BMP_temperature;BMP_pressure;BME280_temperature;BME280_humidity;BME280_pressure;Samples;Min_cycle;Max_cycle;Signal;HPM_P1;HPM_P2
2023/12/28 00:01:50;;;;;;;5.50;1.57;;;7.10;90.80;;;;;;4989396;28;20773;-69
2023/12/28 00:04:16;;;;;;;3.10;1.27;;;8.30;91.40;;;;;;4994501;28;20188;-69
2023/12/28 00:06:41;;;;;;;2.53;1.20;;;8.00;91.10;;;;;;4998538;28;20488;-69
2023/12/28 00:09:08;;;;;;;1.63;0.80;;;7.60;91.30;;;;;;4997077;28;20226;-69
2023/12/28 00:11:34;;;;;;;2.43;1.17;;;7.20;90.50;;;;;;4998187;28;20191;-69
2023/12/28 00:13:59;;;;;;;1.50;0.80;;;7.50;90.70;;;;;;4999129;28;20430;-69
2023/12/28 00:16:25;;;;;;;3.93;1.80;;;7.70;90.80;;;;;;4996711;28;20543;-65
2023/12/28 00:18:50;;;;;;;2.73;1.33;;;7.80;91.00;;;;;;4997154;28;20229;-65
2023/12/28 00:21:16;;;;;;;2.87;1.20;;;7.20;90.60;;;;;;5003674;28;20669;-65
2023/12/28 00:23:41;;;;;;;7.03;1.43;;;7.90;91.10;;;;;;4996168;28;20259;-65
2023/12/28 00:26:07;;;;;;;6.50;1.40;;;7.10;90.80;;;;;;4991575;28;20234;-65
2023/12/28 00:28:32;;;;;;;2.50;1.47;;;7.10;90.90;;;;;;5005406;28;20750;-65
2023/12/28 00:30:58;;;;;;;2.80;1.00;;;7.70;91.20;;;;;;4992667;28;20270;-65
2023/12/28 00:33:23;;;;;;;2.70;1.20;;;7.50;91.50;;;;;;4997521;28;20202;-65
2023/12/28 00:35:49;;;;;;;2.20;0.90;;;7.10;92.10;;;;;;5000215;28;20302;-69
2023/12/28 00:38:14;;;;;;;1.90;0.93;;;7.30;92.70;;;;;;5002458;28;20190;-69
2023/12/28 00:40:40;;;;;;;3.20;1.27;;;6.60;92.40;;;;;;4999031;28;20191;-69
2023/12/28 00:43:05;;;;;;;3.07;1.50;;;6.50;92.90;;;;;;4996836;28;20668;-69
2023/12/28 00:45:31;;;;;;;4.43;1.70;;;7.10;92.90;;;;;;4990522;28;20184;-69
2023/12/28 00:47:56;;;;;;;3.10;1.23;;;7.60;93.10;;;;;;5000154;28;20199;-69
2023/12/28 00:50:22;;;;;;;2.23;1.10;;;7.60;93.20;;;;;;4996037;28;20215;-69
2023/12/28 00:52:47;;;;;;;6.10;1.30;;;7.50;93.40;;;;;;4997273;28;20235;-69
2023/12/28 00:55:13;;;;;;;2.37;1.20;;;6.20;93.10;;;;;;5003632;28;20217;-69
2023/12/28 00:57:38;;;;;;;1.50;0.90;;;6.20;92.70;;;;;;4984633;28;20195;-69
2023/12/28 01:00:05;;;;;;;5.40;1.63;;;7.30;93.50;;;;;;4984929;28;20208;-69
2023/12/28 01:02:30;;;;;;;4.27;1.43;;;6.40;92.70;;;;;;4992250;28;20176;-69
2023/12/28 01:04:56;;;;;;;2.50;1.33;;;7.30;93.40;;;;;;5001207;28;20415;-69
2023/12/28 01:07:21;;;;;;;2.20;1.30;;;7.40;93.50;;;;;;5003605;28;20183;-69
2023/12/28 01:09:47;;;;;;;3.43;1.67;;;7.40;93.20;;;;;;4991750;28;20555;-69
2023/12/28 01:12:12;;;;;;;2.00;1.30;;;7.30;93.00;;;;;;4997563;28;20188;-69
2023/12/28 01:14:38;;;;;;;3.53;1.57;;;7.40;93.10;;;;;;4990502;28;20215;-69
2023/12/28 01:17:03;;;;;;;2.50;1.00;;;6.70;92.60;;;;;;5005124;28;20235;-69
2023/12/28 01:19:29;;;;;;;2.97;1.50;;;6.70;92.50;;;;;;5000949;28;20636;-69
2023/12/28 01:21:54;;;;;;;5.20;1.47;;;6.50;93.30;;;;;;5001895;28;20191;-69
2023/12/28 01:24:20;;;;;;;5.07;1.17;;;6.40;93.10;;;;;;5001410;28;20210;-69
2023/12/28 01:26:45;;;;;;;2.73;0.77;;;7.10;93.40;;;;;;5002949;28;20698;-69
2023/12/28 01:29:11;;;;;;;2.70;1.20;;;6.30;93.50;;;;;;4995687;28;20191;-69
2023/12/28 01:31:38;;;;;;;2.60;1.10;;;6.40;93.10;;;;;;4994823;28;20550;-69
2023/12/28 01:34:04;;;;;;;2.40;0.87;;;6.70;93.20;;;;;;4996798;28;20288;-69
2023/12/28 01:36:30;;;;;;;4.00;1.43;;;7.30;93.30;;;;;;5001654;28;20961;-65
2023/12/28 01:38:55;;;;;;;8.00;1.20;;;7.10;93.40;;;;;;4995143;28;20259;-65
2023/12/28 01:41:21;;;;;;;2.00;0.70;;;7.30;93.30;;;;;;4994959;28;20314;-69
2023/12/28 01:43:47;;;;;;;2.97;1.13;;;7.50;93.10;;;;;;4992733;28;20188;-69
2023/12/28 01:46:19;;;;;;;3.20;1.07;;;6.70;92.90;;;;;;5007217;28;20269;-69
2023/12/28 01:48:48;;;;;;;2.33;1.07;;;6.90;92.20;;;;;;5008001;28;20176;-69
2023/12/28 01:51:14;;;;;;;11.47;1.43;;;7.40;92.60;;;;;;5004911;28;20418;-65
2023/12/28 01:53:41;;;;;;;3.20;1.27;;;8.30;92.80;;;;;;4994923;28;20411;-65
2023/12/28 01:56:07;;;;;;;3.00;1.00;;;7.70;92.70;;;;;;5003518;28;20466;-65
2023/12/28 01:58:34;;;;;;;2.00;1.10;;;8.40;92.90;;;;;;4994732;28;20415;-65
2023/12/28 02:01:00;;;;;;;1.90;1.03;;;7.60;92.70;;;;;;4987210;28;20447;-65
2023/12/28 02:03:26;;;;;;;2.13;1.20;;;7.80;92.80;;;;;;4999723;28;20484;-65
2023/12/28 02:05:52;;;;;;;1.80;0.97;;;6.90;92.50;;;;;;4998912;28;20915;-69
2023/12/28 02:08:17;;;;;;;2.07;0.93;;;6.80;92.40;;;;;;4994709;28;20427;-69
2023/12/28 02:10:43;;;;;;;2.20;1.40;;;7.60;92.60;;;;;;5000488;28;20215;-69
2023/12/28 02:13:09;;;;;;;2.07;1.00;;;7.70;92.70;;;;;;4997552;28;20648;-69
2023/12/28 02:15:35;;;;;;;2.33;0.90;;;8.00;93.20;;;;;;5011868;28;20261;-65
2023/12/28 02:18:19;;;;;;;2.33;1.00;;;6.80;92.60;;;;;;4996524;28;21141;-65
2023/12/28 02:20:46;;;;;;;2.17;1.20;;;7.90;92.70;;;;;;5006171;28;20172;-69
2023/12/28 02:23:12;;;;;;;4.20;1.23;;;8.40;93.00;;;;;;4994194;28;20427;-69
2023/12/28 02:25:37;;;;;;;1.93;0.90;;;6.90;92.20;;;;;;4994246;28;20425;-65
2023/12/28 02:28:03;;;;;;;1.80;0.80;;;8.20;92.90;;;;;;4995712;28;20231;-65
2023/12/28 02:30:29;;;;;;;2.50;0.90;;;6.90;92.50;;;;;;4993399;28;20250;-69
2023/12/28 02:33:24;;;;;;;3.17;0.83;;;6.90;92.10;;;;;;5000894;28;20419;-69
2023/12/28 02:35:58;;;;;;;2.60;1.20;;;6.80;92.50;;;;;;4985927;28;20467;-69
2023/12/28 02:38:24;;;;;;;3.50;1.00;;;7.40;92.80;;;;;;5007230;28;20466;-69
2023/12/28 02:40:50;;;;;;;2.23;1.10;;;7.80;93.00;;;;;;4994072;28;20445;-64
2023/12/28 02:43:16;;;;;;;1.70;0.83;;;6.80;92.30;;;;;;5000355;28;20426;-65
2023/12/28 02:45:42;;;;;;;3.60;1.27;;;8.40;93.00;;;;;;4993719;28;20867;-65
2023/12/28 02:48:07;;;;;;;2.70;0.90;;;8.40;92.90;;;;;;5002112;28;20191;-65
2023/12/28 02:50:34;;;;;;;1.90;0.93;;;8.30;92.80;;;;;;4999337;28;20199;-69
2023/12/28 02:53:00;;;;;;;4.07;1.37;;;6.80;92.70;;;;;;4998991;28;20246;-69
2023/12/28 02:55:26;;;;;;;1.83;0.97;;;8.50;93.30;;;;;;5004385;28;20459;-69
2023/12/28 02:57:54;;;;;;;3.33;1.00;;;6.80;92.60;;;;;;4986305;28;20180;-69
2023/12/28 03:00:20;;;;;;;2.90;1.03;;;6.90;92.10;;;;;;4986377;28;20188;-69
2023/12/28 03:02:46;;;;;;;3.30;1.17;;;7.00;92.10;;;;;;4993755;28;21009;-69
2023/12/28 03:05:11;;;;;;;1.43;0.80;;;7.10;91.90;;;;;;5003006;28;20190;-69
2023/12/28 03:07:37;;;;;;;1.60;0.70;;;7.30;91.30;;;;;;4993461;28;20222;-69
2023/12/28 03:10:03;;;;;;;2.33;1.00;;;7.40;91.50;;;;;;5001830;28;20958;-69
2023/12/28 03:12:30;;;;;;;2.30;1.13;;;7.40;91.60;;;;;;5003812;28;20183;-70
2023/12/28 03:14:55;;;;;;;2.30;1.10;;;7.90;91.60;;;;;;4992584;28;20462;-72
2023/12/28 03:17:21;;;;;;;2.63;1.23;;;8.40;91.90;;;;;;5002512;28;20494;-69
2023/12/28 03:19:47;;;;;;;2.73;0.70;;;8.40;92.00;;;;;;5000656;28;20190;-69
2023/12/28 03:22:12;;;;;;;1.60;0.90;;;8.50;91.80;;;;;;4996873;28;20655;-65
2023/12/28 03:24:38;;;;;;;2.23;1.10;;;8.80;92.00;;;;;;4998181;28;20708;-65
2023/12/28 03:27:04;;;;;;;4.23;1.30;;;7.50;91.40;;;;;;4992551;28;20198;-65
2023/12/28 03:29:30;;;;;;;1.80;1.00;;;7.50;91.10;;;;;;4993359;28;20637;-65
2023/12/28 03:31:56;;;;;;;5.13;1.07;;;8.70;91.60;;;;;;4999099;28;20429;-69
2023/12/28 03:34:22;;;;;;;2.23;1.00;;;8.00;91.50;;;;;;4997415;28;20183;-69
2023/12/28 03:36:50;;;;;;;4.30;1.33;;;7.90;91.20;;;;;;5009775;28;20214;-69
2023/12/28 03:39:16;;;;;;;1.83;1.17;;;7.80;90.70;;;;;;4996440;28;20429;-69
2023/12/28 03:41:41;;;;;;;3.10;0.80;;;9.50;91.60;;;;;;4995836;28;20435;-65
2023/12/28 03:44:07;;;;;;;1.80;0.97;;;8.60;91.30;;;;;;5000962;28;20295;-65
2023/12/28 03:46:32;;;;;;;1.43;0.70;;;8.40;91.50;;;;;;4980930;28;20188;-69
2023/12/28 03:48:58;;;;;;;4.03;1.07;;;9.00;91.50;;;;;;5002825;28;20230;-69
2023/12/28 03:51:23;;;;;;;1.63;0.80;;;9.30;92.00;;;;;;5001837;28;20198;-69
2023/12/28 03:53:49;;;;;;;1.67;0.77;;;7.70;91.10;;;;;;5000897;28;20202;-69
2023/12/28 03:56:25;;;;;;;2.37;0.80;;;9.20;91.90;;;;;;4994467;28;20330;-65
2023/12/28 03:58:51;;;;;;;4.60;1.33;;;9.00;92.00;;;;;;4989734;28;20529;-65
2023/12/28 04:01:18;;;;;;;2.33;0.90;;;8.30;91.40;;;;;;4985649;28;20926;-69
2023/12/28 04:03:44;;;;;;;3.37;1.13;;;8.10;91.10;;;;;;5000074;28;20902;-69
2023/12/28 04:06:09;;;;;;;4.87;0.87;;;7.80;91.00;;;;;;4996780;28;20426;-69
2023/12/28 04:08:35;;;;;;;1.80;0.80;;;7.70;91.30;;;;;;5001235;28;20234;-69
2023/12/28 04:11:00;;;;;;;2.90;1.00;;;9.20;92.00;;;;;;4997588;28;20226;-69
2023/12/28 04:13:26;;;;;;;1.97;0.70;;;8.80;91.90;;;;;;4997673;28;20210;-69
2023/12/28 04:15:51;;;;;;;3.93;1.00;;;8.80;91.60;;;;;;4994106;28;20294;-69
2023/12/28 04:18:17;;;;;;;2.00;0.83;;;8.90;91.60;;;;;;5000893;28;20227;-69
2023/12/28 04:20:44;;;;;;;3.37;1.27;;;7.80;91.10;;;;;;5002856;28;20346;-69
2023/12/28 04:23:10;;;;;;;21.93;6.90;;;9.60;91.90;;;;;;5002986;28;20270;-69
2023/12/28 04:25:35;;;;;;;4.67;1.50;;;9.00;91.70;;;;;;4994170;28;20554;-69
2023/12/28 04:28:01;;;;;;;17.40;3.93;;;7.80;91.50;;;;;;4999303;28;20551;-69
2023/12/28 04:30:27;;;;;;;3.73;1.33;;;8.60;91.70;;;;;;5000644;28;20216;-65
2023/12/28 04:32:52;;;;;;;2.00;0.90;;;9.70;92.30;;;;;;4986119;28;20553;-65
2023/12/28 04:35:18;;;;;;;6.03;1.07;;;9.00;92.10;;;;;;4996996;28;20457;-65
2023/12/28 04:37:43;;;;;;;1.40;0.70;;;7.90;91.30;;;;;;5000653;28;20199;-65
2023/12/28 04:40:09;;;;;;;4.33;1.10;;;7.90;91.30;;;;;;4998287;28;20191;-70
2023/12/28 04:42:35;;;;;;;79.00;18.10;;;7.90;91.40;;;;;;4997848;28;20296;-69
2023/12/28 04:45:00;;;;;;;5.60;2.00;;;8.20;91.80;;;;;;4993338;28;20641;-70
2023/12/28 04:47:26;;;;;;;2.13;1.10;;;8.80;91.90;;;;;;4996404;28;20257;-69
2023/12/28 04:49:51;;;;;;;3.47;0.90;;;8.40;91.90;;;;;;4994707;28;20223;-69
2023/12/28 04:52:16;;;;;;;2.87;1.10;;;8.60;91.90;;;;;;5002586;28;20195;-69
2023/12/28 04:54:42;;;;;;;6.10;0.90;;;8.70;91.80;;;;;;5007450;28;20192;-70
2023/12/28 04:57:08;;;;;;;3.00;0.93;;;8.10;91.20;;;;;;4988491;28;20211;-69
2023/12/28 04:59:41;;;;;;;2.27;1.00;;;8.10;90.80;;;;;;4991334;28;20212;-69
2023/12/28 05:02:06;;;;;;;4.10;1.03;;;8.20;90.80;;;;;;4994562;28;20431;-65
2023/12/28 05:04:32;;;;;;;2.20;0.97;;;8.20;90.90;;;;;;5005515;28;20427;-65
2023/12/28 05:06:58;;;;;;;1.87;0.93;;;9.00;91.70;;;;;;5004775;28;20191;-69
2023/12/28 05:09:23;;;;;;;2.47;1.20;;;9.00;91.90;;;;;;4998178;28;20200;-69
2023/12/28 05:11:49;;;;;;;1.93;0.83;;;9.10;92.10;;;;;;5001289;28;20195;-69
2023/12/28 05:14:14;;;;;;;1.30;0.70;;;9.00;92.50;;;;;;5002444;28;20608;-69
2023/12/28 05:16:40;;;;;;;1.33;0.73;;;9.00;92.30;;;;;;4995042;28;20215;-69
2023/12/28 05:19:05;;;;;;;1.97;0.90;;;8.00;92.20;;;;;;4999190;28;20188;-69
2023/12/28 05:21:31;;;;;;;8.70;1.00;;;8.70;92.70;;;;;;5004497;28;20540;-69
2023/12/28 05:23:56;;;;;;;2.37;1.00;;;8.50;92.70;;;;;;5000770;28;20184;-69
2023/12/28 05:26:23;;;;;;;1.60;0.90;;;8.50;93.00;;;;;;4999600;28;20267;-69
2023/12/28 05:28:48;;;;;;;2.63;0.73;;;9.10;93.40;;;;;;4998392;28;20180;-69
2023/12/28 05:31:14;;;;;;;1.53;0.77;;;8.80;93.00;;;;;;5004540;28;20415;-69
2023/12/28 05:33:39;;;;;;;3.00;1.07;;;8.60;93.10;;;;;;5006491;28;20187;-69
2023/12/28 05:36:06;;;;;;;2.40;0.93;;;8.60;92.80;;;;;;5004804;28;20215;-65
2023/12/28 05:38:31;;;;;;;1.50;0.80;;;8.30;92.50;;;;;;4998332;28;20184;-65
2023/12/28 05:40:57;;;;;;;2.10;0.80;;;8.90;92.50;;;;;;5002570;28;20472;-69
2023/12/28 05:43:22;;;;;;;2.27;1.00;;;8.90;92.50;;;;;;4999952;28;20596;-69
2023/12/28 05:45:48;;;;;;;1.70;0.87;;;8.40;92.40;;;;;;4991133;28;20627;-65
2023/12/28 05:48:13;;;;;;;1.50;0.90;;;9.10;92.70;;;;;;4993109;28;20203;-65
2023/12/28 05:50:39;;;;;;;2.50;1.10;;;8.40;92.50;;;;;;5001367;28;20206;-69
2023/12/28 05:53:05;;;;;;;1.90;0.90;;;8.40;92.60;;;;;;5000708;28;20205;-69
2023/12/28 05:55:30;;;;;;;1.20;0.60;;;9.50;93.40;;;;;;5005692;28;20491;-65
2023/12/28 05:57:56;;;;;;;2.33;1.10;;;8.40;93.20;;;;;;4987383;28;20180;-65
2023/12/28 06:00:21;;;;;;;2.83;1.23;;;8.30;93.40;;;;;;4987823;28;20258;-69
2023/12/28 06:02:51;;;;;;;3.63;1.17;;;9.00;93.80;;;;;;4993466;28;20271;-69
2023/12/28 06:05:17;;;;;;;2.27;0.90;;;8.70;93.90;;;;;;4981930;28;20187;-65
2023/12/28 06:07:42;;;;;;;1.97;1.17;;;8.30;94.00;;;;;;4994109;28;20425;-65
2023/12/28 06:10:08;;;;;;;1.53;0.93;;;8.90;94.40;;;;;;5011329;28;20194;-69
2023/12/28 06:12:34;;;;;;;2.80;0.77;;;8.40;94.60;;;;;;5003191;28;20183;-69
2023/12/28 06:14:59;;;;;;;1.97;1.00;;;8.30;94.50;;;;;;5003268;28;20783;-69
2023/12/28 06:17:25;;;;;;;2.03;0.90;;;8.30;94.70;;;;;;4994179;28;20226;-69
2023/12/28 06:19:51;;;;;;;1.60;0.70;;;8.20;94.90;;;;;;5001514;28;20234;-69
2023/12/28 06:22:16;;;;;;;2.27;0.80;;;8.30;95.00;;;;;;4997856;28;20226;-69
2023/12/28 06:24:41;;;;;;;1.90;0.90;;;8.30;95.60;;;;;;4994335;28;20568;-69
2023/12/28 06:27:07;;;;;;;2.03;0.70;;;8.00;95.70;;;;;;4979059;28;20319;-69
2023/12/28 06:29:32;;;;;;;2.67;1.10;;;8.00;95.80;;;;;;5013666;28;20191;-69
2023/12/28 06:31:58;;;;;;;2.13;1.07;;;8.10;96.20;;;;;;5011393;28;20187;-69
2023/12/28 06:34:23;;;;;;;4.07;1.00;;;8.10;96.60;;;;;;4998580;28;20278;-69
2023/12/28 06:36:49;;;;;;;2.33;1.00;;;8.00;96.80;;;;;;5010587;28;20729;-69
2023/12/28 06:39:14;;;;;;;2.20;1.10;;;7.90;97.00;;;;;;4994040;28;20218;-69
2023/12/28 06:41:40;;;;;;;2.07;1.00;;;7.80;97.30;;;;;;4993813;28;20195;-69
2023/12/28 06:44:05;;;;;;;6.33;1.07;;;7.80;97.50;;;;;;4990841;28;20184;-69
2023/12/28 06:46:31;;;;;;;2.00;0.80;;;7.80;97.70;;;;;;4993231;28;20671;-65
2023/12/28 06:48:58;;;;;;;4.13;1.73;;;7.70;97.90;;;;;;4993877;28;20192;-65
2023/12/28 06:51:25;;;;;;;2.53;0.70;;;7.70;98.00;;;;;;4997599;28;20191;-69
2023/12/28 06:53:50;;;;;;;2.43;0.90;;;7.70;98.00;;;;;;5001058;28;20481;-69
2023/12/28 06:56:16;;;;;;;2.90;1.03;;;7.80;97.90;;;;;;4989998;28;21015;-70
2023/12/28 06:58:42;;;;;;;13.70;1.20;;;7.90;97.80;;;;;;4988312;28;20227;-69
2023/12/28 07:01:07;;;;;;;4.73;1.70;;;7.90;97.80;;;;;;4993502;28;20175;-69
2023/12/28 07:03:34;;;;;;;3.67;0.70;;;8.20;97.80;;;;;;4990225;28;20215;-69
2023/12/28 07:06:00;;;;;;;3.73;1.20;;;8.20;97.60;;;;;;4996774;28;20435;-69
2023/12/28 07:08:25;;;;;;;5.30;1.10;;;8.30;97.50;;;;;;4998143;28;20202;-70
2023/12/28 07:10:51;;;;;;;1.50;0.80;;;8.30;97.20;;;;;;4996343;28;20201;-65
2023/12/28 07:13:16;;;;;;;2.00;0.97;;;8.40;97.20;;;;;;5003729;28;20220;-65
2023/12/28 07:15:42;;;;;;;1.50;0.80;;;8.40;97.20;;;;;;4992122;28;20315;-65
2023/12/28 07:18:07;;;;;;;5.23;1.03;;;8.50;97.30;;;;;;5002145;28;20236;-65
2023/12/28 07:20:33;;;;;;;3.27;1.20;;;8.50;97.30;;;;;;5003594;28;20208;-70
2023/12/28 07:22:58;;;;;;;6.73;1.50;;;8.80;97.00;;;;;;4994620;28;20176;-70
2023/12/28 07:25:24;;;;;;;9.97;1.30;;;8.80;96.80;;;;;;4992675;28;20798;-70
2023/12/28 07:27:49;;;;;;;1.87;0.90;;;9.20;96.60;;;;;;4995175;28;20266;-69
2023/12/28 07:30:16;;;;;;;3.40;1.10;;;9.10;96.60;;;;;;4996992;28;20543;-70
2023/12/28 07:32:42;;;;;;;1.73;1.00;;;9.10;96.70;;;;;;5008595;28;20189;-70
2023/12/28 07:35:08;;;;;;;2.40;0.93;;;9.00;96.80;;;;;;4989819;28;20433;-70
2023/12/28 07:37:34;;;;;;;1.57;0.93;;;9.00;96.70;;;;;;4990430;28;20192;-70
2023/12/28 07:40:00;;;;;;;1.40;0.90;;;9.10;96.70;;;;;;4986250;28;20435;-65
2023/12/28 07:42:25;;;;;;;1.90;0.90;;;9.10;96.80;;;;;;5011948;28;20414;-65
2023/12/28 07:44:51;;;;;;;1.73;0.90;;;9.10;96.60;;;;;;4983892;28;20179;-65
2023/12/28 07:47:16;;;;;;;1.53;0.70;;;9.20;97.00;;;;;;5008746;28;20186;-70
2023/12/28 07:49:42;;;;;;;2.10;0.90;;;9.20;96.90;;;;;;4995335;28;20267;-70
2023/12/28 07:52:08;;;;;;;4.87;1.10;;;9.40;96.70;;;;;;4988522;28;20234;-70
2023/12/28 07:54:33;;;;;;;5.27;1.53;;;9.30;96.60;;;;;;4992341;28;20188;-70
2023/12/28 07:56:59;;;;;;;1.60;0.80;;;9.30;96.80;;;;;;5000466;28;20205;-65
2023/12/28 07:59:25;;;;;;;1.63;1.00;;;9.30;96.60;;;;;;4992419;28;20568;-65
2023/12/28 08:01:50;;;;;;;2.97;1.37;;;9.30;96.60;;;;;;4993344;28;20533;-70
2023/12/28 08:04:16;;;;;;;2.00;1.07;;;9.20;96.60;;;;;;4994323;28;20199;-70
2023/12/28 08:06:41;;;;;;;1.97;0.93;;;9.20;96.80;;;;;;5009992;28;20277;-70
2023/12/28 08:09:07;;;;;;;2.47;1.17;;;9.20;96.70;;;;;;5007654;28;20195;-70
2023/12/28 08:11:32;;;;;;;1.93;1.00;;;9.20;96.60;;;;;;5001174;28;20198;-70
2023/12/28 08:13:58;;;;;;;2.13;1.00;;;9.20;96.40;;;;;;4998640;28;20187;-69
2023/12/28 08:16:23;;;;;;;2.23;0.97;;;9.30;96.20;;;;;;4993736;28;20214;-70
2023/12/28 08:18:49;;;;;;;2.37;1.20;;;9.40;96.10;;;;;;4993112;28;20199;-70
2023/12/28 08:21:14;;;;;;;1.20;0.50;;;9.40;96.20;;;;;;5003176;28;20631;-70
2023/12/28 08:23:40;;;;;;;8.20;1.53;;;9.30;95.90;;;;;;4997157;28;20178;-70
2023/12/28 08:26:06;;;;;;;2.80;1.10;;;9.50;95.90;;;;;;4993875;28;20294;-70
2023/12/28 08:28:32;;;;;;;1.40;0.70;;;9.40;96.00;;;;;;4998891;28;20274;-70
2023/12/28 08:30:58;;;;;;;3.57;1.17;;;9.50;95.80;;;;;;4994205;28;20553;-67
2023/12/28 08:33:23;;;;;;;1.73;0.80;;;9.60;95.80;;;;;;4991165;28;20614;-68
2023/12/28 08:35:49;;;;;;;2.17;0.97;;;9.50;95.90;;;;;;5005070;28;20214;-68
2023/12/28 08:38:14;;;;;;;6.77;2.00;;;9.50;96.10;;;;;;4999330;28;20180;-68
2023/12/28 08:40:40;;;;;;;5.63;1.00;;;9.60;96.30;;;;;;5002757;28;20274;-68
2023/12/28 08:43:05;;;;;;;1.83;0.93;;;9.40;96.30;;;;;;4993696;28;20184;-68
2023/12/28 08:45:31;;;;;;;5.63;1.50;;;9.40;96.40;;;;;;4995485;28;20191;-68
2023/12/28 08:47:56;;;;;;;5.93;1.20;;;9.30;96.70;;;;;;5003488;28;20187;-68
2023/12/28 08:50:22;;;;;;;1.70;1.00;;;9.30;97.10;;;;;;5014387;28;20202;-68
2023/12/28 08:52:47;;;;;;;3.40;1.10;;;9.20;97.70;;;;;;5014186;28;20194;-68
2023/12/28 08:55:13;;;;;;;2.67;1.10;;;9.10;98.10;;;;;;4997990;28;20193;-68
2023/12/28 08:57:39;;;;;;;1.57;0.70;;;9.10;97.90;;;;;;5008051;28;20504;-68
2023/12/28 09:00:06;;;;;;;3.60;1.33;;;9.30;97.70;;;;;;5010103;28;20450;-68
2023/12/28 09:02:31;;;;;;;2.90;1.23;;;9.30;97.80;;;;;;4980298;28;20552;-68
2023/12/28 09:04:58;;;;;;;5.47;1.40;;;9.30;97.90;;;;;;4993303;28;20437;-68
2023/12/28 09:07:24;;;;;;;4.47;1.40;;;9.40;97.60;;;;;;4976279;28;20195;-68
2023/12/28 09:09:49;;;;;;;2.20;1.03;;;9.40;97.50;;;;;;4988387;28;20444;-68
2023/12/28 09:12:15;;;;;;;4.23;1.20;;;9.40;97.70;;;;;;4996590;28;20756;-68
2023/12/28 09:14:41;;;;;;;2.30;1.10;;;9.40;97.80;;;;;;4999677;28;20183;-68
2023/12/28 09:17:06;;;;;;;1.30;0.70;;;9.40;97.50;;;;;;5005243;28;20231;-68
2023/12/28 09:19:32;;;;;;;1.67;0.70;;;9.40;97.60;;;;;;5008729;28;20278;-68
2023/12/28 09:21:57;;;;;;;3.00;0.80;;;9.50;97.40;;;;;;5010222;28;20187;-64
2023/12/28 09:24:23;;;;;;;1.63;0.83;;;9.40;97.20;;;;;;4997925;28;20569;-64
2023/12/28 09:26:48;;;;;;;5.13;0.90;;;9.50;97.50;;;;;;5011104;28;20184;-68
2023/12/28 09:29:14;;;;;;;1.97;1.00;;;9.40;97.40;;;;;;4987696;28;20278;-68
2023/12/28 09:31:40;;;;;;;2.40;1.00;;;9.40;97.80;;;;;;5005400;28;20191;-68
2023/12/28 09:34:05;;;;;;;4.03;1.13;;;9.40;97.60;;;;;;5005737;28;20188;-68
2023/12/28 09:36:31;;;;;;;1.97;0.90;;;9.40;97.50;;;;;;5006493;28;20207;-68
2023/12/28 09:38:57;;;;;;;2.83;1.00;;;9.50;97.10;;;;;;4994837;28;20671;-68
2023/12/28 09:41:26;;;;;;;2.67;1.07;;;9.50;97.20;;;;;;5005621;28;20260;-68
2023/12/28 09:44:10;;;;;;;2.90;1.23;;;9.50;97.00;;;;;;4998355;28;20625;-68
2023/12/28 09:46:38;;;;;;;4.27;0.80;;;9.60;97.10;;;;;;4990303;28;20430;-68
2023/12/28 09:49:04;;;;;;;2.27;0.97;;;9.60;96.80;;;;;;4997671;28;20608;-68
2023/12/28 09:51:30;;;;;;;2.80;1.43;;;9.60;96.40;;;;;;4985090;28;20525;-64
2023/12/28 09:53:56;;;;;;;2.40;1.27;;;9.70;96.60;;;;;;4988633;28;20595;-64
2023/12/28 09:56:23;;;;;;;2.63;1.10;;;9.80;96.70;;;;;;5007212;28;20282;-64
2023/12/28 09:58:50;;;;;;;4.03;1.50;;;9.90;96.20;;;;;;5013298;28;20422;-64
2023/12/28 10:01:17;;;;;;;3.67;1.33;;;9.80;96.20;;;;;;5012301;28;20575;-67
2023/12/28 10:03:43;;;;;;;1.80;1.03;;;9.90;96.30;;;;;;5011822;28;20438;-68
2023/12/28 10:06:08;;;;;;;1.90;0.90;;;9.90;96.80;;;;;;5006158;28;20446;-68
2023/12/28 10:08:35;;;;;;;1.50;0.70;;;9.80;96.70;;;;;;4999209;28;20190;-68
2023/12/28 10:11:02;;;;;;;1.70;0.83;;;9.80;96.50;;;;;;5007495;28;20179;-68
2023/12/28 10:13:27;;;;;;;3.60;1.30;;;10.00;96.10;;;;;;5002796;28;20926;-68
2023/12/28 10:15:56;;;;;;;2.03;1.30;;;9.90;97.40;;;;;;5005957;28;20458;-68
2023/12/28 10:18:23;;;;;;;2.40;0.90;;;10.00;96.70;;;;;;5003213;28;20293;-68
2023/12/28 10:20:53;;;;;;;3.60;0.90;;;10.00;96.90;;;;;;5004585;28;20835;-65
2023/12/28 10:23:21;;;;;;;2.63;1.20;;;10.00;97.00;;;;;;5000594;28;20430;-64
2023/12/28 10:25:46;;;;;;;3.00;1.13;;;10.00;97.10;;;;;;5010876;28;20422;-64
2023/12/28 10:28:12;;;;;;;2.23;1.00;;;9.90;97.90;;;;;;5001683;28;20426;-64
2023/12/28 10:30:40;;;;;;;2.53;0.90;;;10.00;97.40;;;;;;4986764;28;20191;-68
2023/12/28 10:33:06;;;;;;;6.23;1.27;;;9.90;98.00;;;;;;5005847;28;20198;-68
2023/12/28 10:35:32;;;;;;;2.80;1.00;;;10.00;97.70;;;;;;5009994;28;20481;-64
2023/12/28 10:38:03;;;;;;;5.03;1.10;;;9.90;98.70;;;;;;5011180;28;21055;-64
2023/12/28 10:40:30;;;;;;;2.97;0.80;;;9.90;98.80;;;;;;5006278;28;20417;-64
2023/12/28 10:43:02;;;;;;;4.03;1.10;;;9.90;99.60;;;;;;4992561;28;20415;-64
2023/12/28 10:45:31;;;;;;;2.10;1.03;;;9.90;99.70;;;;;;4998533;28;20915;-67
2023/12/28 10:48:08;;;;;;;2.37;0.93;;;10.00;99.40;;;;;;5001693;28;20425;-68
2023/12/28 10:51:04;;;;;;;2.90;0.80;;;10.00;99.70;;;;;;5003275;28;20468;-68
2023/12/28 10:53:51;;;;;;;3.83;1.60;;;10.00;99.60;;;;;;4974968;28;20477;-68
2023/12/28 10:56:38;;;;;;;2.80;0.90;;;10.00;99.90;;;;;;5002620;28;20458;-64
2023/12/28 10:59:28;;;;;;;2.90;1.07;;;10.10;99.70;;;;;;5009392;28;20414;-65
2023/12/28 11:01:56;;;;;;;1.90;1.10;;;10.10;99.90;;;;;;5002600;28;20522;-68
2023/12/28 11:04:41;;;;;;;3.67;1.63;;;10.10;99.90;;;;;;4996444;28;20426;-68
2023/12/28 11:07:09;;;;;;;4.40;1.00;;;9.90;99.90;;;;;;5006612;28;20458;-64
2023/12/28 11:09:36;;;;;;;1.40;0.70;;;10.00;99.90;;;;;;4991550;28;20426;-64
2023/12/28 11:12:06;;;;;;;3.53;1.13;;;10.10;99.90;;;;;;5002093;28;20436;-68
2023/12/28 11:14:33;;;;;;;1.40;0.70;;;10.10;99.90;;;;;;4997503;28;20504;-68
2023/12/28 11:17:00;;;;;;;2.70;1.10;;;10.10;99.90;;;;;;5005415;28;20485;-64
2023/12/28 11:19:27;;;;;;;1.93;1.00;;;10.10;99.90;;;;;;5011024;28;20429;-64
2023/12/28 11:21:53;;;;;;;2.70;1.10;;;10.20;99.90;;;;;;5008018;28;20423;-67
2023/12/28 11:24:19;;;;;;;1.87;0.70;;;10.10;99.90;;;;;;5011434;28;20422;-68
2023/12/28 11:26:51;;;;;;;2.40;1.17;;;10.00;99.90;;;;;;5010968;28;20421;-68
2023/12/28 11:29:19;;;;;;;1.40;0.80;;;10.20;99.90;;;;;;5000780;28;20915;-67
2023/12/28 11:31:54;;;;;;;2.63;0.87;;;10.20;99.90;;;;;;5003768;28;20501;-64
2023/12/28 11:34:29;;;;;;;1.40;0.60;;;10.10;99.90;;;;;;5008493;28;20797;-65
2023/12/28 11:36:56;;;;;;;1.30;0.53;;;10.20;99.90;;;;;;4993924;28;20476;-64
2023/12/28 11:39:35;;;;;;;1.67;0.97;;;10.20;99.90;;;;;;5005376;28;20429;-65
2023/12/28 11:42:05;;;;;;;2.23;1.30;;;10.20;99.90;;;;;;4988152;28;20513;-68
2023/12/28 11:44:42;;;;;;;2.30;1.17;;;10.20;99.90;;;;;;5001737;28;20418;-68
2023/12/28 11:47:15;;;;;;;1.97;1.13;;;10.10;99.90;;;;;;5003229;28;20414;-68
2023/12/28 11:49:41;;;;;;;2.90;1.10;;;10.20;99.90;;;;;;5009272;28;20929;-68
2023/12/28 11:52:07;;;;;;;2.03;1.43;;;10.20;99.90;;;;;;5003943;28;20474;-68
2023/12/28 11:54:33;;;;;;;3.93;1.53;;;10.10;99.90;;;;;;5007759;28;20422;-67
2023/12/28 11:56:58;;;;;;;1.80;0.80;;;10.10;99.90;;;;;;5007366;28;20464;-68
2023/12/28 11:59:24;;;;;;;4.63;1.40;;;10.00;99.90;;;;;;4993935;28;20276;-68
2023/12/28 12:01:51;;;;;;;2.17;0.87;;;10.10;99.90;;;;;;5006225;28;20576;-64
2023/12/28 12:04:17;;;;;;;2.03;0.70;;;9.90;99.90;;;;;;5003060;28;20290;-64
2023/12/28 12:06:42;;;;;;;2.60;1.07;;;10.10;99.90;;;;;;4997023;28;20957;-67
2023/12/28 12:09:10;;;;;;;1.90;0.93;;;10.10;99.90;;;;;;4983264;28;20562;-67
2023/12/28 12:11:37;;;;;;;2.00;1.10;;;10.10;99.90;;;;;;5001837;28;20191;-64
2023/12/28 12:14:06;;;;;;;1.80;0.73;;;9.90;99.90;;;;;;4999950;28;20433;-64
2023/12/28 12:16:31;;;;;;;6.50;1.53;;;9.90;99.90;;;;;;5002913;28;20477;-68
2023/12/28 12:18:58;;;;;;;3.20;1.17;;;10.00;99.90;;;;;;4996920;28;20494;-68
2023/12/28 12:21:24;;;;;;;2.17;0.90;;;10.00;99.90;;;;;;4994721;28;20588;-68
2023/12/28 12:23:50;;;;;;;3.20;1.07;;;10.10;99.90;;;;;;4977939;28;20443;-68
2023/12/28 12:26:18;;;;;;;1.87;0.60;;;10.10;99.90;;;;;;4976915;28;20531;-68
2023/12/28 12:28:44;;;;;;;3.47;1.20;;;10.10;99.90;;;;;;4990647;28;20463;-68
2023/12/28 12:31:10;;;;;;;4.17;1.07;;;10.10;99.90;;;;;;4992712;28;20468;-68
2023/12/28 12:33:37;;;;;;;2.00;0.70;;;10.10;99.90;;;;;;4990315;28;21300;-68
2023/12/28 12:36:05;;;;;;;3.57;1.20;;;9.90;99.90;;;;;;4989291;28;20474;-68
2023/12/28 12:38:32;;;;;;;2.07;0.83;;;9.90;99.90;;;;;;4980119;28;20995;-68
2023/12/28 12:40:58;;;;;;;2.50;1.20;;;9.90;99.90;;;;;;4987199;28;20419;-68
2023/12/28 12:43:23;;;;;;;2.73;0.80;;;9.90;99.90;;;;;;4979769;28;20423;-68
2023/12/28 12:45:49;;;;;;;3.27;1.07;;;9.90;99.90;;;;;;4992099;28;20484;-67
2023/12/28 12:48:14;;;;;;;1.30;0.67;;;10.00;99.90;;;;;;4995845;28;20202;-67
2023/12/28 12:50:40;;;;;;;2.03;1.20;;;10.00;99.90;;;;;;4985631;28;20180;-68
2023/12/28 12:53:05;;;;;;;1.70;0.90;;;10.00;99.90;;;;;;4986966;28;20196;-68